createdAt,value
2022-10-09T00:00:10.594Z,59.06
2022-10-09T00:01:20.783Z,58.92
2022-10-09T00:02:23.922Z,58.65
2022-10-09T00:03:26.964Z,57.39
2022-10-09T00:04:30.177Z,57.80
2022-10-09T00:05:33.438Z,58.42
2022-10-09T00:06:36.602Z,59.35
2022-10-09T00:07:39.612Z,59.12
2022-10-09T00:08:43.818Z,58.62
2022-10-09T00:09:47.338Z,58.08
2022-10-09T00:10:50.376Z,59.05
2022-10-09T00:11:53.562Z,59.72
2022-10-09T00:12:57.029Z,59.72
2022-10-09T00:14:01.141Z,59.33
2022-10-09T00:15:04.557Z,59.41
2022-10-09T00:16:11.231Z,60.35
2022-10-09T00:17:14.084Z,60.46
2022-10-09T00:18:18.521Z,60.64
2022-10-09T00:19:21.690Z,60.53
2022-10-09T00:20:24.685Z,60.35
2022-10-09T00:21:33.516Z,60.70
2022-10-09T00:22:36.556Z,60.70
2022-10-09T00:23:39.457Z,62.05
2022-10-09T00:24:43.565Z,61.46
2022-10-09T00:26:04.633Z,61.35
2022-10-09T00:27:07.411Z,61.80
2022-10-09T00:28:10.409Z,61.88
2022-10-09T00:29:13.297Z,61.75
2022-10-09T00:30:16.361Z,61.96
2022-10-09T00:31:20.331Z,61.77
2022-10-09T00:32:23.532Z,61.80
2022-10-09T00:33:26.382Z,62.26
2022-10-09T00:34:29.469Z,62.17
2022-10-09T00:35:32.458Z,62.42
2022-10-09T00:36:35.377Z,62.43
2022-10-09T00:37:38.410Z,62.96
2022-10-09T00:38:41.677Z,62.87
2022-10-09T00:39:44.673Z,63.22
2022-10-09T00:40:47.619Z,63.57
2022-10-09T00:41:50.543Z,63.66
2022-10-09T00:42:58.810Z,63.77
2022-10-09T00:44:23.506Z,63.96
2022-10-09T00:45:27.334Z,64.02
2022-10-09T00:46:38.482Z,63.62
2022-10-09T00:47:46.792Z,63.58
2022-10-09T00:49:05.929Z,63.42
2022-10-09T00:50:15.004Z,63.70
2022-10-09T00:51:17.889Z,63.04
2022-10-09T00:52:23.087Z,63.10
2022-10-09T00:53:29.928Z,62.70
2022-10-09T00:54:37.626Z,62.20
2022-10-09T00:55:40.695Z,61.85
2022-10-09T00:56:44.004Z,61.30
2022-10-09T00:57:47.159Z,61.27
2022-10-09T00:58:55.337Z,61.00
2022-10-09T01:00:01.889Z,61.17
2022-10-09T01:01:05.048Z,61.77
2022-10-09T01:02:08.109Z,61.60
2022-10-09T01:03:11.316Z,61.83
2022-10-09T01:04:14.843Z,62.05
2022-10-09T01:05:18.334Z,62.38
2022-10-09T01:06:48.547Z,61.49
2022-10-09T01:08:15.112Z,61.63
2022-10-09T01:09:35.551Z,61.41
2022-10-09T01:10:53.481Z,61.84
2022-10-09T01:12:08.497Z,62.43
2022-10-09T01:13:32.968Z,63.12
2022-10-09T01:15:17.162Z,63.53
2022-10-09T01:16:28.449Z,63.34
2022-10-09T01:18:04.160Z,63.62
2022-10-09T01:19:50.859Z,63.85
2022-10-09T01:21:15.015Z,64.25
2022-10-09T01:22:46.580Z,64.19
2022-10-09T01:24:24.614Z,64.30
2022-10-09T01:25:45.274Z,64.72
2022-10-09T01:27:00.622Z,64.82
2022-10-09T01:28:06.920Z,65.35
2022-10-09T01:29:12.035Z,65.28
2022-10-09T01:30:15.006Z,65.70
2022-10-09T01:31:20.937Z,65.81
2022-10-09T01:32:31.571Z,65.68
2022-10-09T01:33:34.864Z,65.46
2022-10-09T01:34:40.847Z,64.60
2022-10-09T01:35:46.542Z,65.00
2022-10-09T01:36:51.351Z,64.47
2022-10-09T01:37:56.183Z,64.28
2022-10-09T01:39:02.869Z,64.10
2022-10-09T01:40:07.500Z,63.63
2022-10-09T01:41:10.919Z,63.42
2022-10-09T01:42:15.326Z,63.48
2022-10-09T01:43:18.347Z,63.53
2022-10-09T01:44:28.981Z,63.48
2022-10-09T01:45:43.361Z,63.71
2022-10-09T01:46:46.909Z,63.83
2022-10-09T01:47:49.965Z,63.89
2022-10-09T01:49:32.765Z,64.19
2022-10-09T01:50:45.133Z,64.15
2022-10-09T01:52:00.457Z,64.03
2022-10-09T01:53:19.328Z,64.41
2022-10-09T01:54:52.327Z,62.70
2022-10-09T01:56:19.095Z,62.29
2022-10-09T01:57:33.612Z,62.40
2022-10-09T01:58:51.460Z,62.04
2022-10-09T01:59:58.589Z,62.01
2022-10-09T02:01:07.180Z,62.25
2022-10-09T02:02:11.651Z,62.30
2022-10-09T02:03:16.619Z,62.82
2022-10-09T02:04:20.332Z,62.87
2022-10-09T02:05:28.087Z,63.35
2022-10-09T02:06:32.478Z,63.33
2022-10-09T02:07:35.706Z,63.13
2022-10-09T02:08:41.201Z,62.93
2022-10-09T02:09:46.019Z,63.22
2022-10-09T02:10:56.470Z,62.95
2022-10-09T02:12:06.922Z,62.79
2022-10-09T02:13:10.213Z,62.26
2022-10-09T02:14:13.409Z,63.14
2022-10-09T02:15:16.355Z,63.93
2022-10-09T02:16:46.667Z,63.58
2022-10-09T02:17:53.085Z,63.78
2022-10-09T02:19:30.438Z,63.13
2022-10-09T02:20:37.499Z,63.46
2022-10-09T02:21:48.654Z,63.84
2022-10-09T02:22:55.697Z,64.05
2022-10-09T02:23:59.835Z,63.80
2022-10-09T02:25:06.667Z,63.61
2022-10-09T02:26:11.836Z,64.27
2022-10-09T02:27:16.336Z,63.64
2022-10-09T02:28:19.687Z,63.38
2022-10-09T02:29:23.080Z,63.32
2022-10-09T02:30:36.211Z,63.26
2022-10-09T02:31:41.905Z,63.06
2022-10-09T02:32:44.898Z,63.82
2022-10-09T02:33:59.250Z,63.53
2022-10-09T02:35:02.377Z,63.28
2022-10-09T02:36:05.714Z,63.26
2022-10-09T02:37:09.234Z,63.31
2022-10-09T02:38:12.090Z,63.22
2022-10-09T02:39:15.342Z,63.25
2022-10-09T02:40:18.157Z,63.09
2022-10-09T02:41:21.989Z,63.57
2022-10-09T02:42:26.056Z,63.94
2022-10-09T02:43:29.470Z,63.66
2022-10-09T02:44:32.311Z,63.49
2022-10-09T02:45:35.209Z,63.85
2022-10-09T02:46:38.607Z,64.22
2022-10-09T02:47:41.629Z,63.98
2022-10-09T02:48:45.166Z,64.35
2022-10-09T02:49:48.158Z,63.92
2022-10-09T02:50:50.993Z,63.61
2022-10-09T02:51:53.987Z,63.28
2022-10-09T02:52:57.184Z,63.11
2022-10-09T02:54:00.208Z,63.38
2022-10-09T02:55:03.395Z,63.51
2022-10-09T02:56:06.489Z,63.42
2022-10-09T02:57:09.479Z,63.10
2022-10-09T02:58:12.464Z,62.98
2022-10-09T02:59:15.528Z,63.04
2022-10-09T03:00:18.697Z,63.16
2022-10-09T03:01:21.802Z,63.64
2022-10-09T03:02:25.091Z,63.87
2022-10-09T03:03:28.232Z,63.88
2022-10-09T03:04:31.054Z,63.79
2022-10-09T03:05:33.997Z,63.72
2022-10-09T03:06:37.683Z,64.05
2022-10-09T03:07:40.812Z,64.04
2022-10-09T03:08:47.613Z,64.05
2022-10-09T03:09:50.783Z,63.43
2022-10-09T03:10:53.720Z,63.85
2022-10-09T03:11:56.886Z,63.71
2022-10-09T03:12:59.987Z,63.96
2022-10-09T03:14:02.940Z,63.98
2022-10-09T03:15:06.679Z,63.84
2022-10-09T03:16:14.430Z,64.12
2022-10-09T03:17:17.387Z,63.79
2022-10-09T03:18:20.566Z,63.81
2022-10-09T03:19:23.320Z,63.76
2022-10-09T03:20:26.306Z,63.86
2022-10-09T03:21:30.248Z,63.77
2022-10-09T03:22:33.291Z,63.68
2022-10-09T03:23:36.579Z,63.71
2022-10-09T03:24:39.560Z,63.85
2022-10-09T03:25:42.757Z,63.67
2022-10-09T03:26:45.760Z,63.60
2022-10-09T03:27:49.612Z,63.61
2022-10-09T03:28:54.660Z,63.85
2022-10-09T03:29:58.738Z,63.85
2022-10-09T03:31:01.682Z,64.02
2022-10-09T03:32:04.737Z,63.89
2022-10-09T03:33:07.725Z,64.17
2022-10-09T03:34:13.868Z,64.06
2022-10-09T03:35:16.883Z,64.68
2022-10-09T03:36:20.495Z,64.52
2022-10-09T03:37:23.502Z,64.78
2022-10-09T03:38:26.527Z,64.60
2022-10-09T03:39:29.392Z,64.50
2022-10-09T03:40:32.589Z,64.68
2022-10-09T03:41:35.469Z,64.65
2022-10-09T03:42:38.622Z,64.52
2022-10-09T03:43:41.630Z,64.51
2022-10-09T03:44:44.568Z,64.47
2022-10-09T03:45:47.776Z,64.07
2022-10-09T03:46:52.570Z,64.13
2022-10-09T03:47:55.597Z,64.46
2022-10-09T03:48:58.473Z,64.36
2022-10-09T03:50:01.384Z,64.58
2022-10-09T03:51:04.624Z,64.45
2022-10-09T03:52:07.595Z,65.02
2022-10-09T03:53:15.295Z,64.89
2022-10-09T03:54:18.321Z,64.87
2022-10-09T03:55:21.230Z,64.79
2022-10-09T03:56:24.080Z,64.96
2022-10-09T03:57:26.915Z,64.89
2022-10-09T03:58:29.855Z,64.70
2022-10-09T03:59:32.790Z,64.55
2022-10-09T04:00:36.451Z,64.36
2022-10-09T04:01:39.527Z,64.08
2022-10-09T04:02:42.616Z,64.27
2022-10-09T04:03:45.517Z,64.28
2022-10-09T04:04:48.487Z,64.19
2022-10-09T04:05:51.385Z,64.41
2022-10-09T04:06:54.236Z,64.52
2022-10-09T04:07:57.293Z,64.20
2022-10-09T04:09:01.320Z,63.88
2022-10-09T04:10:05.318Z,63.50
2022-10-09T04:11:08.267Z,64.15
2022-10-09T04:12:11.067Z,65.23
2022-10-09T04:13:13.998Z,64.42
2022-10-09T04:14:16.954Z,64.63
2022-10-09T04:15:20.171Z,65.14
2022-10-09T04:16:23.097Z,64.07
2022-10-09T04:17:26.100Z,63.38
2022-10-09T04:18:29.046Z,64.73
2022-10-09T04:19:31.892Z,64.26
2022-10-09T04:20:34.917Z,64.33
2022-10-09T04:21:37.754Z,64.84
2022-10-09T04:22:40.855Z,63.74
2022-10-09T04:23:43.856Z,64.24
2022-10-09T04:24:46.805Z,65.12
2022-10-09T04:25:54.937Z,64.36
2022-10-09T04:26:57.732Z,64.54
2022-10-09T04:28:00.561Z,64.71
2022-10-09T04:29:03.501Z,64.58
2022-10-09T04:30:07.142Z,63.97
2022-10-09T04:31:10.145Z,64.09
2022-10-09T04:32:13.157Z,64.28
2022-10-09T04:33:16.098Z,64.13
2022-10-09T04:34:18.999Z,63.12
2022-10-09T04:35:21.971Z,62.72
2022-10-09T04:36:25.139Z,62.69
2022-10-09T04:37:28.147Z,62.58
2022-10-09T04:38:31.859Z,62.67
2022-10-09T04:39:34.946Z,62.27
2022-10-09T04:40:38.455Z,62.15
2022-10-09T04:41:41.680Z,61.95
2022-10-09T04:42:44.781Z,61.70
2022-10-09T04:43:47.716Z,61.72
2022-10-09T04:44:50.631Z,61.63
2022-10-09T04:45:54.771Z,61.04
2022-10-09T04:46:57.794Z,60.99
2022-10-09T04:48:00.777Z,60.39
2022-10-09T04:49:04.111Z,60.40
2022-10-09T04:50:07.943Z,60.10
2022-10-09T04:51:11.676Z,60.12
2022-10-09T04:52:14.436Z,60.09
2022-10-09T04:53:17.740Z,60.06
2022-10-09T04:54:20.725Z,59.80
2022-10-09T04:55:23.778Z,59.90
2022-10-09T04:56:26.689Z,60.03
2022-10-09T04:57:29.765Z,59.93
2022-10-09T04:58:32.674Z,59.63
2022-10-09T04:59:35.818Z,59.67
2022-10-09T05:00:46.086Z,59.50
2022-10-09T05:01:49.029Z,59.56
2022-10-09T05:02:52.275Z,59.64
2022-10-09T05:03:56.067Z,59.28
2022-10-09T05:04:59.148Z,59.49
2022-10-09T05:06:04.145Z,59.31
2022-10-09T05:07:07.037Z,59.49
2022-10-09T05:08:09.924Z,58.90
2022-10-09T05:09:13.035Z,59.00
2022-10-09T05:10:16.055Z,59.29
2022-10-09T05:11:24.372Z,59.39
2022-10-09T05:12:27.502Z,59.25
2022-10-09T05:13:37.239Z,58.92
2022-10-09T05:14:40.147Z,59.23
2022-10-09T05:15:43.237Z,58.76
2022-10-09T05:17:08.809Z,59.02
2022-10-09T05:18:08.933Z,58.72
2022-10-09T05:19:11.782Z,58.51
2022-10-09T05:20:14.944Z,58.50
2022-10-09T05:21:18.263Z,58.24
2022-10-09T05:22:21.237Z,58.04
2022-10-09T05:23:24.482Z,58.09
2022-10-09T05:24:28.624Z,57.84
2022-10-09T05:25:32.045Z,57.86
2022-10-09T05:26:34.936Z,57.94
2022-10-09T05:27:38.123Z,57.79
2022-10-09T05:28:41.387Z,57.91
2022-10-09T05:29:44.443Z,58.02
2022-10-09T05:30:47.525Z,57.84
2022-10-09T05:31:50.482Z,57.50
2022-10-09T05:32:53.363Z,57.52
2022-10-09T05:34:00.199Z,57.56
2022-10-09T05:35:04.690Z,57.92
2022-10-09T05:36:07.862Z,57.28
2022-10-09T05:37:10.728Z,56.76
2022-10-09T05:38:13.555Z,57.50
2022-10-09T05:39:16.947Z,57.18
2022-10-09T05:40:19.891Z,57.49
2022-10-09T05:41:23.029Z,57.42
2022-10-09T05:42:26.031Z,57.50
2022-10-09T05:43:35.435Z,57.44
2022-10-09T05:44:38.269Z,57.00
2022-10-09T05:45:41.461Z,57.13
2022-10-09T05:46:44.338Z,56.78
2022-10-09T05:47:47.338Z,56.71
2022-10-09T05:48:55.018Z,56.79
2022-10-09T05:49:58.062Z,56.49
2022-10-09T05:51:23.184Z,56.37
2022-10-09T05:52:26.067Z,56.36
2022-10-09T05:53:29.459Z,56.17
2022-10-09T05:54:32.437Z,55.69
2022-10-09T05:55:35.406Z,55.76
2022-10-09T05:56:39.523Z,55.83
2022-10-09T05:57:42.701Z,55.53
2022-10-09T05:58:57.218Z,55.34
2022-10-09T06:00:00.025Z,55.37
2022-10-09T06:01:02.975Z,54.96
2022-10-09T06:02:05.950Z,55.22
2022-10-09T06:03:09.096Z,55.13
2022-10-09T06:04:29.972Z,55.52
2022-10-09T06:05:33.127Z,55.60
2022-10-09T06:06:39.225Z,54.89
2022-10-09T06:07:42.158Z,55.48
2022-10-09T06:08:45.523Z,55.16
2022-10-09T06:09:48.524Z,54.76
2022-10-09T06:10:51.367Z,54.84
2022-10-09T06:11:55.672Z,54.66
2022-10-09T06:12:58.493Z,54.28
2022-10-09T06:14:04.796Z,54.35
2022-10-09T06:15:08.328Z,54.33
2022-10-09T06:16:13.646Z,53.85
2022-10-09T06:17:16.822Z,53.98
2022-10-09T06:18:20.244Z,54.16
2022-10-09T06:19:23.317Z,53.70
2022-10-09T06:20:26.488Z,53.66
2022-10-09T06:21:30.201Z,53.37
2022-10-09T06:22:33.034Z,53.33
2022-10-09T06:23:36.578Z,53.25
2022-10-09T06:24:39.664Z,53.67
2022-10-09T06:25:52.387Z,53.81
2022-10-09T06:26:55.481Z,54.07
2022-10-09T06:27:58.445Z,53.70
2022-10-09T06:29:02.989Z,53.49
2022-10-09T06:30:06.664Z,53.22
2022-10-09T06:31:20.149Z,53.11
2022-10-09T06:32:23.147Z,53.27
2022-10-09T06:33:26.038Z,52.90
2022-10-09T06:34:29.186Z,53.48
2022-10-09T06:35:35.450Z,53.25
2022-10-09T06:36:38.415Z,53.76
2022-10-09T06:37:41.479Z,53.45
2022-10-09T06:38:45.739Z,53.36
2022-10-09T06:39:48.705Z,53.15
2022-10-09T06:40:51.480Z,53.18
2022-10-09T06:41:54.364Z,100.00
2022-10-09T06:43:13.394Z,100.00
2022-10-09T06:44:17.385Z,100.00
2022-10-09T06:45:20.489Z,100.00
2022-10-09T06:46:27.885Z,100.00
2022-10-09T06:47:31.138Z,100.00
2022-10-09T06:48:36.716Z,100.00
2022-10-09T06:49:39.794Z,100.00
2022-10-09T06:50:42.800Z,100.00
2022-10-09T06:51:45.993Z,100.00
2022-10-09T06:52:51.077Z,100.00
2022-10-09T06:53:58.907Z,100.00
2022-10-09T06:55:01.827Z,100.00
2022-10-09T06:56:06.372Z,100.00
2022-10-09T06:57:09.310Z,100.00
2022-10-09T06:58:12.514Z,100.00
2022-10-09T06:59:15.636Z,100.00
2022-10-09T07:00:18.590Z,100.00
2022-10-09T07:01:26.907Z,100.00
2022-10-09T07:02:32.827Z,100.00
2022-10-09T07:03:36.937Z,100.00
2022-10-09T07:04:39.887Z,100.00
2022-10-09T07:05:42.963Z,100.00
2022-10-09T07:06:48.089Z,100.00
2022-10-09T07:07:51.148Z,100.00
2022-10-09T07:09:04.913Z,100.00
2022-10-09T07:10:09.625Z,100.00
2022-10-09T07:11:27.733Z,100.00
2022-10-09T07:12:30.748Z,100.00
2022-10-09T07:13:34.012Z,100.00
2022-10-09T07:14:37.062Z,100.00
2022-10-09T07:15:46.078Z,100.00
2022-10-09T07:16:49.738Z,100.00
2022-10-09T07:17:52.680Z,100.00
2022-10-09T07:18:55.889Z,100.00
2022-10-09T07:19:59.107Z,100.00
2022-10-09T07:21:04.725Z,100.00
2022-10-09T07:22:11.647Z,100.00
2022-10-09T07:23:14.507Z,100.00
2022-10-09T07:24:20.574Z,100.00
2022-10-09T07:25:23.858Z,100.00
2022-10-09T07:26:30.005Z,100.00
2022-10-09T07:27:33.314Z,100.00
2022-10-09T07:28:36.505Z,100.00
2022-10-09T07:29:39.507Z,100.00
2022-10-09T07:30:42.456Z,100.00
2022-10-09T07:31:45.703Z,100.00
2022-10-09T07:32:51.659Z,100.00
2022-10-09T07:33:56.917Z,100.00
2022-10-09T07:34:59.964Z,100.00
2022-10-09T07:36:04.936Z,100.00
2022-10-09T07:37:08.166Z,100.00
2022-10-09T07:38:10.988Z,100.00
2022-10-09T07:39:13.809Z,100.00
2022-10-09T07:40:16.901Z,100.00
2022-10-09T07:41:21.974Z,100.00
2022-10-09T07:42:24.898Z,100.00
2022-10-09T07:43:28.312Z,100.00
2022-10-09T07:44:31.319Z,100.00
2022-10-09T07:45:35.537Z,100.00
2022-10-09T07:46:38.966Z,100.00
2022-10-09T07:47:41.860Z,100.00
2022-10-09T07:48:45.200Z,100.00
2022-10-09T07:49:48.168Z,100.00
2022-10-09T07:50:51.163Z,100.00
2022-10-09T07:51:54.231Z,100.00
2022-10-09T07:52:57.324Z,100.00
2022-10-09T07:54:02.220Z,100.00
2022-10-09T07:55:05.622Z,100.00
2022-10-09T07:56:15.521Z,100.00
2022-10-09T07:57:18.537Z,100.00
2022-10-09T07:58:21.513Z,100.00
2022-10-09T07:59:24.883Z,100.00
2022-10-09T08:00:28.005Z,100.00
2022-10-09T08:01:32.893Z,100.00
2022-10-09T08:02:36.143Z,100.00
2022-10-09T08:03:39.212Z,100.00
2022-10-09T08:04:42.131Z,100.00
2022-10-09T08:05:53.327Z,100.00
2022-10-09T08:06:58.524Z,100.00
2022-10-09T08:08:01.687Z,100.00
2022-10-09T08:09:07.692Z,100.00
2022-10-09T08:10:10.832Z,100.00
2022-10-09T08:11:17.840Z,100.00
2022-10-09T08:12:20.677Z,100.00
2022-10-09T08:13:23.833Z,100.00
2022-10-09T08:14:27.430Z,100.00
2022-10-09T08:15:30.428Z,100.00
2022-10-09T08:16:33.451Z,100.00
2022-10-09T08:17:36.508Z,100.00
2022-10-09T08:18:39.545Z,100.00
2022-10-09T08:19:42.618Z,100.00
2022-10-09T08:20:56.039Z,100.00
2022-10-09T08:22:03.148Z,100.00
2022-10-09T08:23:06.939Z,100.00
2022-10-09T08:24:11.933Z,100.00
2022-10-09T08:25:14.952Z,100.00
2022-10-09T08:26:20.996Z,100.00
2022-10-09T08:27:24.395Z,100.00
2022-10-09T08:28:27.546Z,100.00
2022-10-09T08:29:30.583Z,100.00
2022-10-09T08:30:36.035Z,100.00
2022-10-09T08:31:39.551Z,100.00
2022-10-09T08:32:42.598Z,100.00
2022-10-09T08:33:45.608Z,100.00
2022-10-09T08:34:48.528Z,100.00
2022-10-09T08:35:53.092Z,100.00
2022-10-09T08:36:56.257Z,100.00
2022-10-09T08:37:59.132Z,100.00
2022-10-09T08:39:02.327Z,100.00
2022-10-09T08:40:07.228Z,100.00
2022-10-09T08:41:29.230Z,100.00
2022-10-09T08:42:53.100Z,100.00
2022-10-09T08:44:10.162Z,100.00
2022-10-09T08:45:19.598Z,100.00
2022-10-09T08:46:29.407Z,100.00
2022-10-09T08:47:45.810Z,100.00
2022-10-09T08:48:50.600Z,100.00
2022-10-09T08:50:09.764Z,100.00
2022-10-09T08:51:27.133Z,100.00
2022-10-09T08:52:49.119Z,100.00
2022-10-09T08:54:25.205Z,100.00
2022-10-09T08:55:40.133Z,100.00
2022-10-09T08:56:43.207Z,100.00
2022-10-09T08:57:54.048Z,100.00
2022-10-09T08:58:57.475Z,100.00
2022-10-09T09:00:00.397Z,100.00
2022-10-09T09:01:32.896Z,100.00
2022-10-09T09:03:23.466Z,100.00
2022-10-09T09:04:45.137Z,100.00
2022-10-09T09:06:25.134Z,100.00
2022-10-09T09:08:08.060Z,100.00
2022-10-09T09:09:47.635Z,100.00
2022-10-09T09:11:22.058Z,100.00
2022-10-09T09:12:48.524Z,100.00
2022-10-09T09:14:41.284Z,100.00
2022-10-09T09:16:18.381Z,100.00
2022-10-09T09:17:45.745Z,100.00
2022-10-09T09:19:02.455Z,100.00
2022-10-09T09:20:25.901Z,100.00
2022-10-09T09:21:47.432Z,100.00
2022-10-09T09:22:51.278Z,100.00
2022-10-09T09:23:55.292Z,100.00
2022-10-09T09:25:01.237Z,100.00
2022-10-09T09:26:10.975Z,100.00
2022-10-09T09:27:21.251Z,100.00
2022-10-09T09:28:33.307Z,100.00
2022-10-09T09:29:48.755Z,100.00
2022-10-09T09:31:25.543Z,100.00
2022-10-09T09:32:30.638Z,100.00
2022-10-09T09:33:58.520Z,100.00
2022-10-09T09:35:50.977Z,100.00
2022-10-09T09:36:59.289Z,100.00
2022-10-09T09:38:02.750Z,100.00
2022-10-09T09:40:38.256Z,100.00
2022-10-09T09:41:44.123Z,100.00
2022-10-09T09:42:47.764Z,100.00
2022-10-09T09:43:50.869Z,100.00
2022-10-09T09:45:03.887Z,100.00
2022-10-09T09:46:19.249Z,100.00
2022-10-09T09:47:32.948Z,100.00
2022-10-09T09:48:43.634Z,100.00
2022-10-09T09:50:00.997Z,100.00
2022-10-09T09:51:28.093Z,100.00
2022-10-09T09:52:40.079Z,100.00
2022-10-09T09:53:47.125Z,100.00
2022-10-09T09:54:50.317Z,100.00
2022-10-09T09:55:54.749Z,100.00
2022-10-09T09:57:13.063Z,100.00
2022-10-09T09:58:18.279Z,100.00
2022-10-09T09:59:41.380Z,100.00
2022-10-09T10:00:57.074Z,100.00
2022-10-09T10:02:22.978Z,100.00
2022-10-09T10:03:26.387Z,100.00
2022-10-09T10:04:29.677Z,100.00
2022-10-09T10:05:37.783Z,100.00
2022-10-09T10:06:44.795Z,100.00
2022-10-09T10:07:50.319Z,100.00
2022-10-09T10:09:19.584Z,100.00
2022-10-09T10:10:27.446Z,100.00
2022-10-09T10:11:34.517Z,100.00
2022-10-09T10:13:00.752Z,100.00
2022-10-09T10:14:09.020Z,100.00
2022-10-09T10:15:22.511Z,100.00
2022-10-09T10:16:32.177Z,100.00
2022-10-09T10:17:36.965Z,100.00
2022-10-09T10:18:43.589Z,100.00
2022-10-09T10:19:50.905Z,100.00
2022-10-09T10:21:03.762Z,100.00
2022-10-09T10:22:26.143Z,100.00
2022-10-09T10:23:39.742Z,100.00
2022-10-09T10:24:46.837Z,100.00
2022-10-09T10:25:55.244Z,100.00
2022-10-09T10:27:09.883Z,100.00
2022-10-09T10:28:20.910Z,100.00
2022-10-09T10:29:46.914Z,100.00
2022-10-09T10:30:51.906Z,100.00
2022-10-09T10:32:21.714Z,100.00
2022-10-09T10:33:33.093Z,100.00
2022-10-09T10:34:53.854Z,100.00
2022-10-09T10:35:59.111Z,100.00
2022-10-09T10:37:13.674Z,100.00
2022-10-09T10:38:43.542Z,100.00
2022-10-09T10:39:54.256Z,100.00
2022-10-09T10:41:05.479Z,100.00
2022-10-09T10:42:16.757Z,100.00
2022-10-09T10:43:43.745Z,100.00
2022-10-09T10:45:11.365Z,100.00
2022-10-09T10:46:49.089Z,100.00
2022-10-09T10:47:56.157Z,100.00
2022-10-09T10:49:00.662Z,100.00
2022-10-09T10:50:04.173Z,100.00
2022-10-09T10:51:25.486Z,100.00
2022-10-09T10:53:00.983Z,100.00
2022-10-09T10:54:34.255Z,100.00
2022-10-09T10:55:37.400Z,100.00
2022-10-09T10:57:25.192Z,100.00
2022-10-09T10:58:43.804Z,100.00
2022-10-09T11:00:10.952Z,100.00
2022-10-09T11:01:29.016Z,100.00
2022-10-09T11:03:18.786Z,100.00
2022-10-09T11:04:31.157Z,100.00
2022-10-09T11:06:20.998Z,100.00
2022-10-09T11:07:38.764Z,100.00
2022-10-09T11:09:22.470Z,100.00
2022-10-09T11:10:46.787Z,100.00
2022-10-09T11:12:43.367Z,100.00
2022-10-09T11:14:19.305Z,100.00
2022-10-09T11:15:51.306Z,100.00
2022-10-09T11:17:10.081Z,100.00
2022-10-09T11:18:43.419Z,100.00
2022-10-09T11:20:15.282Z,100.00
2022-10-09T11:21:47.764Z,100.00
2022-10-09T11:23:31.420Z,100.00
2022-10-09T11:24:59.857Z,100.00
2022-10-09T11:26:46.387Z,100.00
2022-10-09T11:28:01.988Z,100.00
2022-10-09T11:29:18.542Z,100.00
2022-10-09T11:30:22.045Z,100.00
2022-10-09T11:31:45.605Z,100.00
2022-10-09T11:33:24.020Z,100.00
2022-10-09T11:34:41.876Z,100.00
2022-10-09T11:35:52.777Z,100.00
2022-10-09T11:36:56.869Z,100.00
2022-10-09T11:38:14.138Z,100.00
2022-10-09T11:39:25.957Z,100.00
2022-10-09T11:40:42.377Z,100.00
2022-10-09T11:41:47.597Z,100.00
2022-10-09T11:43:39.958Z,100.00
2022-10-09T11:44:56.340Z,100.00
2022-10-09T11:46:08.195Z,100.00
2022-10-09T11:47:38.822Z,100.00
2022-10-09T11:48:54.116Z,100.00
2022-10-09T11:50:40.938Z,100.00
2022-10-09T11:52:18.452Z,100.00
2022-10-09T11:53:30.555Z,100.00
2022-10-09T11:54:33.889Z,100.00
2022-10-09T11:55:37.831Z,100.00
2022-10-09T11:57:05.823Z,100.00
2022-10-09T11:58:25.941Z,100.00
2022-10-09T11:59:35.277Z,100.00
2022-10-09T12:00:38.300Z,100.00
2022-10-09T12:01:44.665Z,100.00
2022-10-09T12:02:59.931Z,100.00
2022-10-09T12:04:13.376Z,100.00
2022-10-09T12:05:43.202Z,100.00
2022-10-09T12:06:54.414Z,100.00
2022-10-09T12:08:26.512Z,100.00
2022-10-09T12:09:49.328Z,100.00
2022-10-09T12:11:00.488Z,100.00
2022-10-09T12:12:15.297Z,100.00
2022-10-09T12:13:36.921Z,100.00
2022-10-09T12:14:39.836Z,100.00
2022-10-09T12:15:56.994Z,100.00
2022-10-09T12:17:00.377Z,100.00
2022-10-09T12:18:44.521Z,100.00
2022-10-09T12:19:58.567Z,100.00
2022-10-09T12:21:08.503Z,100.00
2022-10-09T12:22:25.368Z,100.00
2022-10-09T12:23:33.592Z,100.00
2022-10-09T12:24:53.620Z,100.00
2022-10-09T12:25:57.788Z,100.00
2022-10-09T12:27:03.344Z,100.00
2022-10-09T12:28:13.971Z,100.00
2022-10-09T12:29:32.229Z,100.00
2022-10-09T12:30:47.442Z,100.00
2022-10-09T12:31:56.797Z,100.00
2022-10-09T12:33:28.384Z,100.00
2022-10-09T12:34:37.290Z,100.00
2022-10-09T12:35:45.159Z,100.00
2022-10-09T12:36:48.618Z,100.00
2022-10-09T12:37:52.156Z,100.00
2022-10-09T12:38:55.842Z,100.00
2022-10-09T12:40:21.258Z,100.00
2022-10-09T12:41:29.911Z,100.00
2022-10-09T12:42:33.056Z,100.00
2022-10-09T12:43:36.504Z,100.00
2022-10-09T12:44:40.305Z,100.00
2022-10-09T12:45:47.225Z,100.00
2022-10-09T12:46:51.168Z,100.00
2022-10-09T12:47:55.337Z,100.00
2022-10-09T12:49:01.843Z,100.00
2022-10-09T12:50:24.527Z,100.00
2022-10-09T12:51:30.813Z,100.00
2022-10-09T12:52:33.948Z,100.00
2022-10-09T12:53:49.138Z,100.00
2022-10-09T12:54:52.331Z,100.00
2022-10-09T12:56:00.776Z,100.00
2022-10-09T12:57:03.837Z,100.00
2022-10-09T12:58:43.481Z,100.00
2022-10-09T12:59:48.326Z,100.00
2022-10-09T13:00:55.926Z,100.00
2022-10-09T13:02:00.336Z,100.00
2022-10-09T13:03:03.356Z,100.00
2022-10-09T13:04:10.663Z,100.00
2022-10-09T13:05:13.571Z,100.00
2022-10-09T13:06:20.654Z,100.00
2022-10-09T13:07:27.929Z,100.00
2022-10-09T13:08:38.040Z,100.00
2022-10-09T13:09:41.626Z,100.00
2022-10-09T13:10:44.674Z,100.00
2022-10-09T13:11:59.365Z,100.00
2022-10-09T13:13:02.438Z,100.00
2022-10-09T13:14:05.616Z,100.00
2022-10-09T13:15:34.093Z,100.00
2022-10-09T13:16:47.767Z,100.00
2022-10-09T13:17:51.534Z,100.00
2022-10-09T13:19:00.604Z,100.00
2022-10-09T13:20:30.594Z,100.00
2022-10-09T13:21:35.410Z,100.00
2022-10-09T13:22:39.515Z,100.00
2022-10-09T13:23:42.453Z,100.00
2022-10-09T13:24:45.829Z,100.00
2022-10-09T13:25:48.967Z,100.00
2022-10-09T13:26:51.999Z,100.00
2022-10-09T13:27:55.568Z,100.00
2022-10-09T13:29:02.287Z,100.00
2022-10-09T13:30:07.430Z,100.00
2022-10-09T13:31:10.305Z,100.00
2022-10-09T13:32:18.366Z,100.00
2022-10-09T13:33:21.473Z,100.00
2022-10-09T13:34:25.877Z,100.00
2022-10-09T13:35:28.839Z,100.00
2022-10-09T13:36:31.999Z,100.00
2022-10-09T13:37:34.961Z,100.00
2022-10-09T13:38:38.840Z,100.00
2022-10-09T13:39:42.342Z,100.00
2022-10-09T13:40:45.581Z,100.00
2022-10-09T13:41:52.965Z,100.00
2022-10-09T13:43:02.475Z,100.00
2022-10-09T13:44:05.410Z,100.00
2022-10-09T13:45:10.359Z,100.00
2022-10-09T13:46:13.199Z,100.00
2022-10-09T13:47:18.621Z,100.00
2022-10-09T13:48:29.532Z,100.00
2022-10-09T13:49:32.552Z,100.00
2022-10-09T13:50:35.386Z,100.00
2022-10-09T13:51:38.359Z,100.00
2022-10-09T13:52:41.687Z,100.00
2022-10-09T13:53:44.579Z,100.00
2022-10-09T13:54:47.566Z,100.00
2022-10-09T13:55:55.942Z,100.00
2022-10-09T13:57:00.015Z,100.00
2022-10-09T13:58:03.971Z,100.00
2022-10-09T13:59:06.943Z,100.00
2022-10-09T14:00:10.909Z,100.00
2022-10-09T14:01:16.714Z,100.00
2022-10-09T14:02:19.793Z,100.00
2022-10-09T14:03:22.970Z,100.00
2022-10-09T14:04:27.210Z,100.00
2022-10-09T14:05:30.318Z,100.00
2022-10-09T14:06:37.893Z,100.00
2022-10-09T14:07:40.907Z,100.00
2022-10-09T14:08:43.906Z,100.00
2022-10-09T14:09:46.846Z,100.00
2022-10-09T14:10:50.001Z,100.00
2022-10-09T14:11:52.785Z,100.00
2022-10-09T14:12:55.836Z,100.00
2022-10-09T14:13:59.564Z,100.00
2022-10-09T14:15:02.658Z,100.00
2022-10-09T14:16:07.594Z,100.00
2022-10-09T14:17:10.379Z,100.00
2022-10-09T14:18:13.414Z,100.00
2022-10-09T14:19:16.733Z,100.00
2022-10-09T14:20:20.144Z,100.00
2022-10-09T14:21:23.197Z,100.00
2022-10-09T14:22:26.165Z,100.00
2022-10-09T14:23:29.121Z,100.00
2022-10-09T14:24:32.286Z,100.00
2022-10-09T14:25:35.216Z,100.00
2022-10-09T14:26:38.293Z,100.00
2022-10-09T14:27:43.928Z,100.00
2022-10-09T14:28:47.701Z,100.00
2022-10-09T14:29:53.057Z,100.00